Cadmus, Michigan
Current Conditions -  °F | °C
As of 10:53 PM on Thursday 27 Nov 2014 (Local Time) from KADG Reporting Station
Few Clouds Few Clouds  
Wind Chill: 15°   Ceiling: Unl
Heat Index: 21°   Visibility: 10mi
Dew Point: 15°   Wind: 5mph
Humidity: 78%   Direction: 320°NW
Pressure: 30.32"   Gusts: NA
Location:  41.9076°N, 84.0644°W
Report Text: KADG 280353Z AUTO 32004KT 10SM FEW050 M06/M09 A3032 RMK AO2 SLP282 T10611094
Loading
Personal Weather Stations






























Interactive Weather Map New forecast layout! Learn more

10-Day Weather Forecast

Advertisements
Track Severe Weather on mobile